Thorco Crystal — V2BP9 — position and weather

sailwx.info

Track history (hours):
 
Tides and Currents Weather Stations Pressure Air Temp Water Temp Dewpoint Dewpoint Depression Visibility Wind Speed Wind Dir Waves Ship Positions

Thorco Crystal

Last reported at 2017-Jan-20 16:25 UTC. Time now 2017-Jan-22 03:45 UTC.
Position N 49°43' W 003°39'.

Length 145 m; draft 6.2 m.

Type: Cargo ship. MMSI: 304736000.

Date/timePositionNaut miles runAvg speedWind from/ knotsBaromVisibWave heightAir tempDewpointWater temp
2017-Jan-20 16:25N 49°43' W 003°39'1112.8
2017-Jan-20 15:34N 49°48' W 003°24'1612.3
2017-Jan-20 14:14N 49°56' W 003°02'811.7
2017-Jan-20 13:33N 49°60' W 002°51'4011.7
2017-Jan-20 10:10N 50°11' W 001°52'813.0
2017-Jan-20 09:33N 50°13' W 001°40'4314.3
2017-Jan-20 06:33N 50°25' W 000°36'1413.8
2017-Jan-20 05:33N 50°29' W 000°15'1313.2
2017-Jan-20 04:33N 50°33' E 000°05'1412.5
2017-Jan-20 03:28N 50°36' E 000°26'1111.7
2017-Jan-20 02:33N 50°40' E 000°41'1212.2
2017-Jan-20 01:33N 50°48' E 000°57'1313.1
2017-Jan-20 00:33N 50°56' E 001°13'1514.7
2017-Jan-19 23:33N 51°06' E 001°31'1514.7
2017-Jan-19 22:34N 51°16' E 001°47'1313.1
2017-Jan-19 21:33N 51°27' E 001°59'1212.2
2017-Jan-19 20:34N 51°36' E 002°12'4711.6
2017-Jan-19 16:28N 52°13' E 003°00'1213.1
2017-Jan-19 15:31N 52°23' E 003°12'1413.4
2017-Jan-19 14:30N 52°34' E 003°26'1413.7
2017-Jan-19 13:28N 52°44' E 003°41'1213.4
2017-Jan-19 12:33N 52°54' E 003°54'1312.6
2017-Jan-19 11:33N 53°03' E 004°09'1211.8
2017-Jan-19 10:32N 53°11' E 004°24'1111.3
2017-Jan-19 09:33N 53°21' E 004°31'2411.5
2017-Jan-19 07:31N 53°43' E 004°44'1212.3
2017-Jan-19 06:33N 53°54' E 004°51'1212.1
2017-Jan-19 05:32N 54°06' E 004°59'1211.8
2017-Jan-19 04:33N 54°16' E 005°09'18811.1
2017-Jan-18 11:32N 56°59' E 007°55'10 9.9
2017-Jan-18 10:33N 57°07' E 008°05'10 9.7
2017-Jan-18 09:32N 57°15' E 008°16'1010.1
2017-Jan-18 08:33N 57°20' E 008°31'1010.2
2017-Jan-18 07:32N 57°26' E 008°47'1010.2
2017-Jan-18 06:32N 57°31' E 009°04'1010.1
2017-Jan-18 05:32N 57°36' E 009°20'1010.3
2017-Jan-18 04:32N 57°42' E 009°36'1010.1
2017-Jan-18 03:33N 57°46' E 009°53'1010.1
2017-Jan-18 02:33N 57°47' E 010°12'1010.0
2017-Jan-18 01:33N 57°49' E 010°30'9 9.4
2017-Jan-18 00:34N 57°48' E 010°48'1110.7
2017-Jan-17 23:33N 57°40' E 011°02'1110.7
2017-Jan-17 22:33N 57°30' E 010°55'1212.3
2017-Jan-17 21:34N 57°19' E 010°45'25 7.8
2017-Jan-17 18:17N 56°55' E 010°29'710.0
2017-Jan-17 17:33N 56°59' E 010°18'9 8.8
2017-Jan-17 16:31N 57°03' E 010°03'0 0.1
2017-Jan-17 15:28N 57°03' E 010°03'0 0.0
2017-Jan-17 14:28N 57°03' E 010°03'0 0.0
2017-Jan-17 13:31N 57°03' E 010°03'0 0.0
2017-Jan-17 12:31N 57°03' E 010°03'0 0.0
2017-Jan-17 11:31N 57°03' E 010°03'0 0.0
2017-Jan-17 10:31N 57°03' E 010°03'0 0.0
2017-Jan-17 09:25N 57°03' E 010°03'0 0.0
2017-Jan-17 08:31N 57°03' E 010°03'0 0.0
2017-Jan-17 07:28N 57°03' E 010°03'0 0.0
2017-Jan-17 06:31N 57°03' E 010°03'0 0.0
2017-Jan-17 05:31N 57°03' E 010°03'0 0.0
2017-Jan-17 04:31N 57°03' E 010°03'0 0.0
2017-Jan-17 03:31N 57°03' E 010°03'0 0.0
2017-Jan-17 02:25N 57°03' E 010°03'0 0.0
2017-Jan-17 01:28N 57°03' E 010°03'0 0.0
2017-Jan-17 00:31N 57°03' E 010°03'0 0.0
2017-Jan-16 23:31N 57°03' E 010°03'0 0.0
2017-Jan-16 22:22N 57°03' E 010°03'0 0.0
2017-Jan-16 21:31N 57°03' E 010°03'0 0.0
2017-Jan-16 20:28N 57°03' E 010°03'0 0.0
2017-Jan-16 19:31N 57°03' E 010°03'0 0.0
2017-Jan-16 18:31N 57°03' E 010°03'0 0.0
2017-Jan-16 17:31N 57°03' E 010°03'0 0.0
2017-Jan-16 16:19N 57°03' E 010°03'0 0.0
2017-Jan-16 15:28N 57°03' E 010°03'0 0.1
2017-Jan-16 14:28N 57°03' E 010°03'0 0.0
2017-Jan-16 13:31N 57°03' E 010°03'0 0.0
2017-Jan-16 12:19N 57°03' E 010°03'0 0.0
2017-Jan-16 11:31N 57°03' E 010°03'0 0.0
2017-Jan-16 10:28N 57°03' E 010°03'0 0.0
2017-Jan-16 09:31N 57°03' E 010°03'0 0.0
2017-Jan-16 08:31N 57°03' E 010°03'0 0.0
2017-Jan-16 07:31N 57°03' E 010°03'0 0.0
2017-Jan-16 06:31N 57°03' E 010°03'0 0.0
2017-Jan-16 05:31N 57°03' E 010°03'0 0.0
2017-Jan-16 04:31N 57°03' E 010°03'0 0.0
2017-Jan-16 03:31N 57°03' E 010°03'0 0.0
2017-Jan-16 02:28N 57°03' E 010°03'0 0.0
2017-Jan-16 01:31N 57°03' E 010°03'0 0.0
2017-Jan-16 00:31N 57°03' E 010°03'0 0.0
2017-Jan-15 23:31N 57°03' E 010°03'0 0.0
2017-Jan-15 22:25N 57°03' E 010°03'0 0.0
2017-Jan-15 21:24N 57°03' E 010°03'0 0.0
2017-Jan-15 20:30N 57°03' E 010°03'0 0.0
2017-Jan-15 19:33N 57°03' E 010°03'0 0.0
2017-Jan-15 18:30N 57°03' E 010°03'0 0.0
2017-Jan-15 17:31N 57°03' E 010°03'0 0.0
2017-Jan-15 16:34N 57°03' E 010°03'0 0.0
2017-Jan-15 15:33N 57°03' E 010°03'0 0.0
2017-Jan-15 14:30N 57°03' E 010°03'0 0.0
2017-Jan-15 13:33N 57°03' E 010°03'0 0.0
2017-Jan-15 12:33N 57°03' E 010°03'0 0.0
2017-Jan-15 11:34N 57°03' E 010°03'0 0.0
2017-Jan-15 10:33N 57°03' E 010°03'0 0.0
2017-Jan-15 09:33N 57°03' E 010°03'0 0.0
2017-Jan-15 08:28N 57°03' E 010°03'0 0.0
2017-Jan-15 07:34N 57°03' E 010°03'0 0.0
2017-Jan-15 06:33N 57°03' E 010°03'0 0.0
2017-Jan-15 05:31N 57°03' E 010°03'0 0.0
2017-Jan-15 04:34N 57°03' E 010°03'0 0.0
2017-Jan-15 03:30N 57°03' E 010°03'0 0.0
2017-Jan-15 02:30N 57°03' E 010°03'0 0.0
2017-Jan-15 01:33N 57°03' E 010°03'0 0.0
2017-Jan-15 00:30N 57°03' E 010°03'0 0.0
2017-Jan-14 23:30N 57°03' E 010°03'0 0.0
2017-Jan-14 22:30N 57°03' E 010°03'0 0.0
2017-Jan-14 21:30N 57°03' E 010°03'0 0.0
2017-Jan-14 20:33N 57°03' E 010°03'0 0.0
2017-Jan-14 19:33N 57°03' E 010°03'0 0.0
2017-Jan-14 18:33N 57°03' E 010°03'0 0.0
2017-Jan-14 17:33N 57°03' E 010°03'0 0.0
2017-Jan-14 16:34N 57°03' E 010°03'0 0.0
2017-Jan-14 15:34N 57°03' E 010°03'0 0.0
2017-Jan-14 14:33N 57°03' E 010°03'0 0.0
2017-Jan-14 13:34N 57°03' E 010°03'0 0.0
2017-Jan-14 12:33N 57°03' E 010°03'0 0.0
2017-Jan-14 11:33N 57°03' E 010°03'0 0.0
2017-Jan-14 10:33N 57°03' E 010°03'0 0.0
2017-Jan-14 09:33N 57°03' E 010°03'0 0.0
2017-Jan-14 08:33N 57°03' E 010°03'0 0.0
2017-Jan-14 07:34N 57°03' E 010°03'0 0.0
2017-Jan-14 06:24N 57°03' E 010°03'0 0.0
2017-Jan-14 05:34N 57°03' E 010°03'0 0.0
2017-Jan-14 04:33N 57°03' E 010°03'0 0.0
2017-Jan-14 03:31N 57°03' E 010°03'0 0.0
2017-Jan-13 23:34N 57°03' E 010°03'0 0.0
2017-Jan-13 22:33N 57°03' E 010°03'0 0.0
2017-Jan-13 21:33N 57°03' E 010°03'0 0.0
2017-Jan-13 20:28N 57°03' E 010°03'0 0.0
2017-Jan-13 19:27N 57°03' E 010°03'0 0.0
2017-Jan-13 18:27N 57°03' E 010°03'0 0.0
2017-Jan-13 17:27N 57°03' E 010°03'0 0.0
2017-Jan-13 16:34N 57°03' E 010°03'0 0.0
2017-Jan-13 15:30N 57°03' E 010°03'0 0.0
2017-Jan-13 14:33N 57°03' E 010°03'0 0.0
2017-Jan-13 13:34N 57°03' E 010°03'0 0.0
2017-Jan-13 12:34N 57°03' E 010°03'0 0.0
2017-Jan-13 11:33N 57°03' E 010°03'0 0.0
2017-Jan-13 10:34N 57°03' E 010°03'0 0.0
2017-Jan-13 09:34N 57°03' E 010°03'0 0.0
2017-Jan-13 08:34N 57°03' E 010°03'0 0.0
2017-Jan-13 07:27N 57°03' E 010°03'0 0.0
2017-Jan-13 06:33N 57°03' E 010°03'0 0.0
2017-Jan-13 05:34N 57°03' E 010°03'0 0.0
2017-Jan-13 04:30N 57°03' E 010°03'0 0.0
2017-Jan-13 03:30N 57°03' E 010°03'0 0.0
2017-Jan-13 02:34N 57°03' E 010°03'0 0.0
2017-Jan-13 01:33N 57°03' E 010°03'0 0.0
2017-Jan-13 00:33N 57°03' E 010°03'0 0.0
2017-Jan-12 23:27N 57°03' E 010°03'0 0.0
2017-Jan-12 22:33N 57°03' E 010°03'0 0.0
2017-Jan-12 21:34N 57°03' E 010°03'0 0.0
2017-Jan-12 20:33N 57°03' E 010°03'0 0.0
2017-Jan-12 19:34N 57°03' E 010°03'1 0.5
2017-Jan-12 18:33N 57°03' E 010°04'9 9.1
2017-Jan-12 17:33N 56°59' E 010°19'25 1.5
2017-Jan-12 00:33N 57°21' E 010°43'10 9.6
2017-Jan-11 23:33N 57°30' E 010°44'1010.2
2017-Jan-11 22:33N 57°40' E 010°45'9 9.5
2017-Jan-11 21:33N 57°48' E 010°34'  
Track history (hours):
 
Tides and Currents Weather Stations Pressure Air Temp Water Temp Dewpoint Dewpoint Depression Visibility Wind Speed Wind Dir Waves Ship Positions

Thorco Crystal

Last reported at 2017-Jan-20 16:25 UTC. Time now 2017-Jan-22 03:45 UTC.
Position N 49°43' W 003°39'.

Length 145 m; draft 6.2 m.

Type: Cargo ship. MMSI: 304736000.

Date/timePositionNaut miles runAvg speedWind from/ knotsBaromVisibWave heightAir tempDewpointWater temp
2017-Jan-20 16:25N 49°43' W 003°39'1112.8
2017-Jan-20 15:34N 49°48' W 003°24'1612.3
2017-Jan-20 14:14N 49°56' W 003°02'811.7
2017-Jan-20 13:33N 49°60' W 002°51'4011.7
2017-Jan-20 10:10N 50°11' W 001°52'813.0
2017-Jan-20 09:33N 50°13' W 001°40'4314.3
2017-Jan-20 06:33N 50°25' W 000°36'1413.8
2017-Jan-20 05:33N 50°29' W 000°15'1313.2
2017-Jan-20 04:33N 50°33' E 000°05'1412.5
2017-Jan-20 03:28N 50°36' E 000°26'1111.7
2017-Jan-20 02:33N 50°40' E 000°41'1212.2
2017-Jan-20 01:33N 50°48' E 000°57'1313.1
2017-Jan-20 00:33N 50°56' E 001°13'1514.7
2017-Jan-19 23:33N 51°06' E 001°31'1514.7
2017-Jan-19 22:34N 51°16' E 001°47'1313.1
2017-Jan-19 21:33N 51°27' E 001°59'1212.2
2017-Jan-19 20:34N 51°36' E 002°12'4711.6
2017-Jan-19 16:28N 52°13' E 003°00'1213.1
2017-Jan-19 15:31N 52°23' E 003°12'1413.4
2017-Jan-19 14:30N 52°34' E 003°26'1413.7
2017-Jan-19 13:28N 52°44' E 003°41'1213.4
2017-Jan-19 12:33N 52°54' E 003°54'1312.6
2017-Jan-19 11:33N 53°03' E 004°09'1211.8
2017-Jan-19 10:32N 53°11' E 004°24'1111.3
2017-Jan-19 09:33N 53°21' E 004°31'2411.5
2017-Jan-19 07:31N 53°43' E 004°44'1212.3
2017-Jan-19 06:33N 53°54' E 004°51'1212.1
2017-Jan-19 05:32N 54°06' E 004°59'1211.8
2017-Jan-19 04:33N 54°16' E 005°09'18811.1
2017-Jan-18 11:32N 56°59' E 007°55'10 9.9
2017-Jan-18 10:33N 57°07' E 008°05'10 9.7
2017-Jan-18 09:32N 57°15' E 008°16'1010.1
2017-Jan-18 08:33N 57°20' E 008°31'1010.2
2017-Jan-18 07:32N 57°26' E 008°47'1010.2
2017-Jan-18 06:32N 57°31' E 009°04'1010.1
2017-Jan-18 05:32N 57°36' E 009°20'1010.3
2017-Jan-18 04:32N 57°42' E 009°36'1010.1
2017-Jan-18 03:33N 57°46' E 009°53'1010.1
2017-Jan-18 02:33N 57°47' E 010°12'1010.0
2017-Jan-18 01:33N 57°49' E 010°30'9 9.4
2017-Jan-18 00:34N 57°48' E 010°48'1110.7
2017-Jan-17 23:33N 57°40' E 011°02'1110.7
2017-Jan-17 22:33N 57°30' E 010°55'1212.3
2017-Jan-17 21:34N 57°19' E 010°45'25 7.8
2017-Jan-17 18:17N 56°55' E 010°29'710.0
2017-Jan-17 17:33N 56°59' E 010°18'9 8.8
2017-Jan-17 16:31N 57°03' E 010°03'0 0.1
2017-Jan-17 15:28N 57°03' E 010°03'0 0.0
2017-Jan-17 14:28N 57°03' E 010°03'0 0.0
2017-Jan-17 13:31N 57°03' E 010°03'0 0.0
2017-Jan-17 12:31N 57°03' E 010°03'0 0.0
2017-Jan-17 11:31N 57°03' E 010°03'0 0.0
2017-Jan-17 10:31N 57°03' E 010°03'0 0.0
2017-Jan-17 09:25N 57°03' E 010°03'0 0.0
2017-Jan-17 08:31N 57°03' E 010°03'0 0.0
2017-Jan-17 07:28N 57°03' E 010°03'0 0.0
2017-Jan-17 06:31N 57°03' E 010°03'0 0.0
2017-Jan-17 05:31N 57°03' E 010°03'0 0.0
2017-Jan-17 04:31N 57°03' E 010°03'0 0.0
2017-Jan-17 03:31N 57°03' E 010°03'0 0.0
2017-Jan-17 02:25N 57°03' E 010°03'0 0.0
2017-Jan-17 01:28N 57°03' E 010°03'0 0.0
2017-Jan-17 00:31N 57°03' E 010°03'0 0.0
2017-Jan-16 23:31N 57°03' E 010°03'0 0.0
2017-Jan-16 22:22N 57°03' E 010°03'0 0.0
2017-Jan-16 21:31N 57°03' E 010°03'0 0.0
2017-Jan-16 20:28N 57°03' E 010°03'0 0.0
2017-Jan-16 19:31N 57°03' E 010°03'0 0.0
2017-Jan-16 18:31N 57°03' E 010°03'0 0.0
2017-Jan-16 17:31N 57°03' E 010°03'0 0.0
2017-Jan-16 16:19N 57°03' E 010°03'0 0.0
2017-Jan-16 15:28N 57°03' E 010°03'0 0.1
2017-Jan-16 14:28N 57°03' E 010°03'0 0.0
2017-Jan-16 13:31N 57°03' E 010°03'0 0.0
2017-Jan-16 12:19N 57°03' E 010°03'0 0.0
2017-Jan-16 11:31N 57°03' E 010°03'0 0.0
2017-Jan-16 10:28N 57°03' E 010°03'0 0.0
2017-Jan-16 09:31N 57°03' E 010°03'0 0.0
2017-Jan-16 08:31N 57°03' E 010°03'0 0.0
2017-Jan-16 07:31N 57°03' E 010°03'0 0.0
2017-Jan-16 06:31N 57°03' E 010°03'0 0.0
2017-Jan-16 05:31N 57°03' E 010°03'0 0.0
2017-Jan-16 04:31N 57°03' E 010°03'0 0.0
2017-Jan-16 03:31N 57°03' E 010°03'0 0.0
2017-Jan-16 02:28N 57°03' E 010°03'0 0.0
2017-Jan-16 01:31N 57°03' E 010°03'0 0.0
2017-Jan-16 00:31N 57°03' E 010°03'0 0.0
2017-Jan-15 23:31N 57°03' E 010°03'0 0.0
2017-Jan-15 22:25N 57°03' E 010°03'0 0.0
2017-Jan-15 21:24N 57°03' E 010°03'0 0.0
2017-Jan-15 20:30N 57°03' E 010°03'0 0.0
2017-Jan-15 19:33N 57°03' E 010°03'0 0.0
2017-Jan-15 18:30N 57°03' E 010°03'0 0.0
2017-Jan-15 17:31N 57°03' E 010°03'0 0.0
2017-Jan-15 16:34N 57°03' E 010°03'0 0.0
2017-Jan-15 15:33N 57°03' E 010°03'0 0.0
2017-Jan-15 14:30N 57°03' E 010°03'0 0.0
2017-Jan-15 13:33N 57°03' E 010°03'0 0.0
2017-Jan-15 12:33N 57°03' E 010°03'0 0.0
2017-Jan-15 11:34N 57°03' E 010°03'0 0.0
2017-Jan-15 10:33N 57°03' E 010°03'0 0.0
2017-Jan-15 09:33N 57°03' E 010°03'0 0.0
2017-Jan-15 08:28N 57°03' E 010°03'0 0.0
2017-Jan-15 07:34N 57°03' E 010°03'0 0.0
2017-Jan-15 06:33N 57°03' E 010°03'0 0.0
2017-Jan-15 05:31N 57°03' E 010°03'0 0.0
2017-Jan-15 04:34N 57°03' E 010°03'0 0.0
2017-Jan-15 03:30N 57°03' E 010°03'0 0.0
2017-Jan-15 02:30N 57°03' E 010°03'0 0.0
2017-Jan-15 01:33N 57°03' E 010°03'0 0.0
2017-Jan-15 00:30N 57°03' E 010°03'0 0.0
2017-Jan-14 23:30N 57°03' E 010°03'0 0.0
2017-Jan-14 22:30N 57°03' E 010°03'0 0.0
2017-Jan-14 21:30N 57°03' E 010°03'0 0.0
2017-Jan-14 20:33N 57°03' E 010°03'0 0.0
2017-Jan-14 19:33N 57°03' E 010°03'0 0.0
2017-Jan-14 18:33N 57°03' E 010°03'0 0.0
2017-Jan-14 17:33N 57°03' E 010°03'0 0.0
2017-Jan-14 16:34N 57°03' E 010°03'0 0.0
2017-Jan-14 15:34N 57°03' E 010°03'0 0.0
2017-Jan-14 14:33N 57°03' E 010°03'0 0.0
2017-Jan-14 13:34N 57°03' E 010°03'0 0.0
2017-Jan-14 12:33N 57°03' E 010°03'0 0.0
2017-Jan-14 11:33N 57°03' E 010°03'0 0.0
2017-Jan-14 10:33N 57°03' E 010°03'0 0.0
2017-Jan-14 09:33N 57°03' E 010°03'0 0.0
2017-Jan-14 08:33N 57°03' E 010°03'0 0.0
2017-Jan-14 07:34N 57°03' E 010°03'0 0.0
2017-Jan-14 06:24N 57°03' E 010°03'0 0.0
2017-Jan-14 05:34N 57°03' E 010°03'0 0.0
2017-Jan-14 04:33N 57°03' E 010°03'0 0.0
2017-Jan-14 03:31N 57°03' E 010°03'0 0.0
2017-Jan-13 23:34N 57°03' E 010°03'0 0.0
2017-Jan-13 22:33N 57°03' E 010°03'0 0.0
2017-Jan-13 21:33N 57°03' E 010°03'0 0.0
2017-Jan-13 20:28N 57°03' E 010°03'0 0.0
2017-Jan-13 19:27N 57°03' E 010°03'0 0.0
2017-Jan-13 18:27N 57°03' E 010°03'0 0.0
2017-Jan-13 17:27N 57°03' E 010°03'0 0.0
2017-Jan-13 16:34N 57°03' E 010°03'0 0.0
2017-Jan-13 15:30N 57°03' E 010°03'0 0.0
2017-Jan-13 14:33N 57°03' E 010°03'0 0.0
2017-Jan-13 13:34N 57°03' E 010°03'0 0.0
2017-Jan-13 12:34N 57°03' E 010°03'0 0.0
2017-Jan-13 11:33N 57°03' E 010°03'0 0.0
2017-Jan-13 10:34N 57°03' E 010°03'0 0.0
2017-Jan-13 09:34N 57°03' E 010°03'0 0.0
2017-Jan-13 08:34N 57°03' E 010°03'0 0.0
2017-Jan-13 07:27N 57°03' E 010°03'0 0.0
2017-Jan-13 06:33N 57°03' E 010°03'0 0.0
2017-Jan-13 05:34N 57°03' E 010°03'0 0.0
2017-Jan-13 04:30N 57°03' E 010°03'0 0.0
2017-Jan-13 03:30N 57°03' E 010°03'0 0.0
2017-Jan-13 02:34N 57°03' E 010°03'0 0.0
2017-Jan-13 01:33N 57°03' E 010°03'0 0.0
2017-Jan-13 00:33N 57°03' E 010°03'0 0.0
2017-Jan-12 23:27N 57°03' E 010°03'0 0.0
2017-Jan-12 22:33N 57°03' E 010°03'0 0.0
2017-Jan-12 21:34N 57°03' E 010°03'0 0.0
2017-Jan-12 20:33N 57°03' E 010°03'0 0.0
2017-Jan-12 19:34N 57°03' E 010°03'1 0.5
2017-Jan-12 18:33N 57°03' E 010°04'9 9.1
2017-Jan-12 17:33N 56°59' E 010°19'25 1.5
2017-Jan-12 00:33N 57°21' E 010°43'10 9.6
2017-Jan-11 23:33N 57°30' E 010°44'1010.2
2017-Jan-11 22:33N 57°40' E 010°45'9 9.5
2017-Jan-11 21:33N 57°48' E 010°34'  

Dump ship's entire track history